Terminal Aerodrome Forecast
Issued by NWS Cleveland, OH

Home | Current Version | Previous Version | Text Only | Print | Product List | Glossary Off
Versions: 1 2 3 4 5 6 7 8 9 10 11 12 13 14 15 16 17 18 19

067
FTUS41 KCLE 221123
TAFERI
TAF
KERI 221123Z 2212/2312 31007KT P6SM VCSH SCT025 BKN080
      TEMPO 2212/2213 2SM -TSRA BKN025CB
     FM221600 25012G20KT 6SM HZ BKN045
     FM230100 24006KT P6SM SCT150=

USA.gov is the U.S. government's official web portal to all federal, state and local government web resources and services.